Time;durP1;ratioP1;P1;durP2;ratioP2;P2;SDS_P1;SDS_P2;PMS_P1;PMS_P2;Temp;Humidity;BMP_temperature;BMP_pressure;BME280_temperature;BME280_humidity;BME280_pressure;Samples;Min_cycle;Max_cycle;Signal;HPM_P1;HPM_P2
2023/10/09 00:02:58;;;;;;;4.57;2.58;;;;;;;10.73;79.80;101683.16;7400870;19;20026;-69
2023/10/09 00:05:38;;;;;;;5.75;3.17;;;;;;;10.73;79.86;101683.16;7401339;19;20021;-68
2023/10/09 00:08:11;;;;;;;5.45;3.35;;;;;;;10.74;80.15;101673.53;7399730;19;20029;-68
2023/10/09 00:10:48;;;;;;;7.25;3.17;;;;;;;10.73;80.19;101677.91;7401100;19;20021;-68
2023/10/09 00:13:18;;;;;;;6.57;3.28;;;;;;;10.74;80.55;101681.41;7401024;19;20014;-67
2023/10/09 00:15:52;;;;;;;6.50;3.30;;;;;;;10.74;80.69;101690.16;7401665;19;20091;-69
2023/10/09 00:18:28;;;;;;;5.95;3.42;;;;;;;10.75;80.76;101673.53;7398416;19;20025;-68
2023/10/09 00:21:00;;;;;;;9.80;3.65;;;;;;;10.75;81.00;101670.03;7401088;19;20021;-68
2023/10/09 00:23:33;;;;;;;4.57;3.10;;;;;;;10.75;81.21;101668.28;7399654;19;20078;-68
2023/10/09 00:26:12;;;;;;;4.70;3.30;;;;;;;10.75;81.63;101667.41;7401014;19;20033;-68
2023/10/09 00:28:44;;;;;;;7.78;3.90;;;;;;;10.74;81.71;101677.03;7397998;19;20034;-68
2023/10/09 00:31:15;;;;;;;7.15;4.10;;;;;;;10.74;81.95;101663.91;7400010;19;20007;-68
2023/10/09 00:33:44;;;;;;;5.57;3.45;;;;;;;10.74;82.20;101663.03;7399984;19;20481;-68
2023/10/09 00:36:19;;;;;;;5.95;3.75;;;;;;;10.73;82.45;101656.06;7400102;19;20014;-67
2023/10/09 00:38:51;;;;;;;7.43;3.80;;;;;;;10.72;82.63;101649.91;7397601;19;20018;-68
2023/10/09 00:41:24;;;;;;;8.88;4.15;;;;;;;10.72;82.93;101636.81;7398019;19;20014;-67
2023/10/09 00:43:59;;;;;;;7.05;4.93;;;;;;;10.70;83.20;101630.72;7398729;19;20029;-69
2023/10/09 00:46:29;;;;;;;10.20;4.53;;;;;;;10.68;83.44;101613.19;7400288;19;20010;-67
2023/10/09 00:49:01;;;;;;;10.00;5.28;;;;;;;10.66;84.10;101609.75;7396923;19;20021;-68
2023/10/09 00:51:35;;;;;;;8.55;4.53;;;;;;;10.61;84.16;101588.78;7399727;19;20425;-69
2023/10/09 00:54:14;;;;;;;7.47;4.10;;;;;;;10.57;84.16;101593.19;7400120;19;20439;-69
2023/10/09 00:56:51;;;;;;;8.82;4.70;;;;;;;10.55;84.25;101586.19;7399798;19;20070;-68
2023/10/09 00:59:22;;;;;;;7.97;4.63;;;;;;;10.51;84.73;101587.97;7399857;19;20010;-68
2023/10/09 01:01:56;;;;;;;9.40;4.75;;;;;;;10.51;84.87;101587.13;7399094;19;20548;-68
2023/10/09 01:04:25;;;;;;;7.93;5.07;;;;;;;10.47;85.46;101573.16;7397428;19;20006;-69
2023/10/09 01:07:07;;;;;;;11.43;5.88;;;;;;;10.45;86.29;101582.81;7398992;19;20081;-68
2023/10/09 01:09:43;;;;;;;8.88;5.03;;;;;;;10.41;86.25;101573.19;7399519;19;20006;-69
2023/10/09 01:12:16;;;;;;;7.05;4.88;;;;;;;10.39;86.29;101575.84;7396509;19;20500;-68
2023/10/09 01:14:45;;;;;;;10.98;5.50;;;;;;;10.37;86.67;101574.97;7397620;19;20014;-69
2023/10/09 01:17:29;;;;;;;11.75;4.57;;;;;;;10.34;86.67;101574.97;7396582;19;20086;-69
2023/10/09 01:20:03;;;;;;;10.00;6.18;;;;;;;10.33;86.95;101561.88;7399231;19;20090;-68
2023/10/09 01:22:38;;;;;;;;;;;;;;;10.31;87.05;101563.63;7399712;19;20011;-67
2023/10/09 01:25:10;;;;;;;6.30;5.07;;;;;;;10.28;86.83;101540.91;7398265;19;20452;-69
2023/10/09 01:27:40;;;;;;;8.60;5.65;;;;;;;10.27;87.14;101541.78;7396648;19;20014;-68
2023/10/09 01:30:13;;;;;;;8.55;5.22;;;;;;;10.26;87.51;101533.06;7399205;19;20018;-69
2023/10/09 01:32:43;;;;;;;8.27;6.13;;;;;;;10.26;87.69;101530.44;7396836;19;20014;-68
2023/10/09 01:35:20;;;;;;;8.75;5.95;;;;;;;10.27;88.03;101526.06;7398188;19;20014;-68
2023/10/09 01:37:50;;;;;;;12.82;6.38;;;;;;;10.26;88.36;101504.22;7397485;19;20021;-68
2023/10/09 01:40:36;;;;;;;11.07;4.93;;;;;;;10.26;88.75;101498.97;7398238;19;20027;-68
2023/10/09 01:43:09;;;;;;;7.72;5.07;;;;;;;10.25;88.83;101481.50;7397249;19;20014;-69
2023/10/09 01:45:42;;;;;;;10.23;4.88;;;;;;;10.22;89.50;101484.16;7398370;19;20014;-68
2023/10/09 01:48:12;;;;;;;7.93;4.65;;;;;;;10.20;89.34;101490.28;7396833;19;20066;-68
2023/10/09 01:50:41;;;;;;;6.30;4.00;;;;;;;10.16;89.34;101468.47;7396580;19;20397;-68
2023/10/09 01:53:17;;;;;;;9.27;4.60;;;;;;;10.15;89.44;101458.84;7397691;19;20018;-68
2023/10/09 01:55:49;;;;;;;7.13;4.80;;;;;;;10.13;89.55;101438.78;7396206;19;20066;-68
2023/10/09 01:58:24;;;;;;;7.93;3.83;;;;;;;10.10;89.39;101435.28;7396443;19;20017;-69
2023/10/09 02:00:54;;;;;;;6.25;3.83;;;;;;;10.06;89.47;101422.22;7396030;19;20010;-68
2023/10/09 02:03:26;;;;;;;7.47;3.80;;;;;;;10.05;89.58;101399.53;7398478;19;20029;-69
2023/10/09 02:05:59;;;;;;;6.28;3.83;;;;;;;10.03;89.70;101399.50;7398286;19;20377;-68
2023/10/09 02:08:29;;;;;;;6.50;3.92;;;;;;;10.02;89.76;101386.41;7396756;19;20019;-68
2023/10/09 02:11:02;;;;;;;5.13;3.95;;;;;;;10.00;89.78;101381.19;7397572;19;20062;-68
2023/10/09 02:13:34;;;;;;;6.57;3.60;;;;;;;9.98;89.74;101382.09;7397413;19;20022;-69
2023/10/09 02:16:13;;;;;;;6.05;3.58;;;;;;;9.96;89.67;101374.25;7395953;19;20014;-69
2023/10/09 02:18:52;;;;;;;8.80;3.88;;;;;;;9.94;89.68;101376.00;7394536;19;20367;-69
2023/10/09 02:21:28;;;;;;;5.72;3.47;;;;;;;9.92;89.50;101370.78;7396428;19;20015;-68
2023/10/09 02:24:04;;;;;;;4.20;2.97;;;;;;;9.89;89.53;101362.94;7396255;19;20021;-68
2023/10/09 02:27:06;;;;;;;6.20;3.45;;;;;;;9.88;89.50;101371.72;7395408;19;20015;-68
2023/10/09 02:29:26;;;;;;;8.00;3.20;;;;;;;9.88;89.55;101376.06;7396050;19;20006;-68
2023/10/09 02:32:13;;;;;;;5.18;3.03;;;;;;;9.88;89.42;101382.19;7396432;19;20015;-68
2023/10/09 02:34:46;;;;;;;6.60;3.10;;;;;;;9.88;89.48;101387.44;7396705;19;20046;-68
2023/10/09 02:37:23;;;;;;;6.13;2.83;;;;;;;9.88;89.28;101403.16;7396337;19;20014;-68
2023/10/09 02:39:52;;;;;;;7.63;3.58;;;;;;;9.88;89.50;101408.41;7396097;19;20033;-68
2023/10/09 02:42:27;;;;;;;7.55;2.72;;;;;;;9.89;89.36;101422.34;7395868;19;20089;-68
2023/10/09 02:44:58;;;;;;;4.88;2.90;;;;;;;9.88;89.45;101434.63;7394709;19;20021;-68
2023/10/09 02:47:29;;;;;;;6.82;2.90;;;;;;;9.89;89.49;101441.56;7395434;19;20041;-68
2023/10/09 02:50:06;;;;;;;3.28;2.67;;;;;;;9.88;89.35;101432.00;7394229;19;20523;-69
2023/10/09 02:52:40;;;;;;;3.55;2.45;;;;;;;9.88;89.35;101420.63;7395453;19;20007;-68
2023/10/09 02:55:23;;;;;;;;;;;;;;;9.86;89.40;101410.16;7396085;19;20065;-69
2023/10/09 02:58:04;;;;;;;5.72;3.53;;;;;;;9.82;89.26;101397.97;7394805;19;19982;-69
2023/10/09 03:00:36;;;;;;;5.43;3.10;;;;;;;9.80;89.37;101397.09;7395540;19;20382;-68
2023/10/09 03:03:06;;;;;;;6.90;2.85;;;;;;;9.75;89.48;101377.91;7395728;19;20006;-68
2023/10/09 03:05:38;;;;;;;4.22;2.45;;;;;;;9.72;89.68;101365.72;7393791;19;20014;-68
2023/10/09 03:08:08;;;;;;;8.48;2.78;;;;;;;9.69;89.87;101357.00;7393677;19;20070;-68
2023/10/09 03:10:38;;;;;;;6.15;3.42;;;;;;;9.66;89.93;101349.19;7394607;19;20015;-69
2023/10/09 03:13:09;;;;;;;5.65;2.67;;;;;;;9.62;90.23;101335.25;7394648;19;20540;-68
2023/10/09 03:15:38;;;;;;;5.15;2.90;;;;;;;9.59;90.29;101325.66;7395229;19;20019;-68
2023/10/09 03:18:07;;;;;;;6.20;2.75;;;;;;;9.56;90.53;101316.94;7393921;19;20025;-68
2023/10/09 03:20:44;;;;;;;6.18;3.70;;;;;;;9.53;90.52;101307.38;7394970;19;20015;-69
2023/10/09 03:23:14;;;;;;;4.60;2.92;;;;;;;9.50;90.58;101311.75;7394963;19;20015;-69
2023/10/09 03:25:45;;;;;;;5.80;3.17;;;;;;;9.48;90.97;101289.94;7394292;19;20485;-68
2023/10/09 03:28:16;;;;;;;5.85;3.45;;;;;;;9.47;91.34;101277.75;7395267;19;20014;-68
2023/10/09 03:30:46;;;;;;;4.90;3.40;;;;;;;9.44;91.66;101273.41;7402229;19;20370;-69
2023/10/09 03:33:16;;;;;;;6.22;3.72;;;;;;;9.41;91.78;101278.66;7402483;19;20014;-68
2023/10/09 03:35:45;;;;;;;7.03;3.50;;;;;;;9.39;91.83;101269.94;7401849;19;20011;-68
2023/10/09 03:38:17;;;;;;;5.85;3.60;;;;;;;9.36;92.18;101262.97;7398598;19;20387;-69
2023/10/09 03:40:47;;;;;;;4.50;3.03;;;;;;;9.34;92.16;101254.28;7399454;19;20038;-69
2023/10/09 03:43:19;;;;;;;4.68;2.90;;;;;;;9.33;92.44;101256.91;7401721;19;20018;-69
2023/10/09 03:45:52;;;;;;;6.30;3.40;;;;;;;9.32;92.31;101249.94;7401114;19;20035;-69
2023/10/09 03:48:26;;;;;;;6.22;3.05;;;;;;;9.31;92.27;101246.44;7399592;19;20021;-69
2023/10/09 03:51:08;;;;;;;6.53;3.13;;;;;;;9.29;92.45;101215.03;7398677;19;20017;-69
2023/10/09 03:53:39;;;;;;;4.05;3.10;;;;;;;9.27;92.31;101201.06;7401582;19;20014;-69
2023/10/09 03:56:11;;;;;;;4.95;2.78;;;;;;;9.26;92.33;101195.84;7401381;19;20015;-68
2023/10/09 03:58:44;;;;;;;5.13;3.03;;;;;;;9.24;92.46;101190.63;7398779;19;20014;-67
2023/10/09 04:01:18;;;;;;;6.17;3.23;;;;;;;9.24;92.83;101195.00;7401562;19;20017;-69
2023/10/09 04:03:47;;;;;;;5.40;3.00;;;;;;;9.21;93.10;101200.25;7400478;19;20029;-68
2023/10/09 04:06:17;;;;;;;7.30;3.83;;;;;;;9.19;93.04;101205.50;7398285;19;20018;-70
2023/10/09 04:08:49;;;;;;;5.57;3.30;;;;;;;9.19;92.88;101207.28;7398238;19;20021;-68
2023/10/09 04:11:22;;;;;;;6.00;4.00;;;;;;;9.18;93.28;101201.16;7400565;19;20011;-68
2023/10/09 04:13:55;;;;;;;7.32;4.03;;;;;;;9.19;93.25;101204.66;7401179;19;20031;-69
2023/10/09 04:19:10;;;;;;;6.75;3.75;;;;;;;9.18;93.38;101195.91;7396681;19;20041;-69
2023/10/09 04:21:37;;;;;;;6.28;3.70;;;;;;;9.19;93.41;101178.47;7400458;19;20477;-69
2023/10/09 04:24:22;;;;;;;5.80;3.22;;;;;;;9.19;93.49;101168.88;7397099;19;20011;-69
2023/10/09 04:26:55;;;;;;;7.75;3.65;;;;;;;9.17;93.47;101161.91;7398102;19;20010;-69
2023/10/09 04:29:43;;;;;;;4.87;3.60;;;;;;;9.18;93.47;101161.88;7400443;19;20011;-68
2023/10/09 04:32:15;;;;;;;6.55;3.65;;;;;;;9.18;93.51;101169.75;7397778;19;20031;-69
2023/10/09 04:34:48;;;;;;;6.78;3.67;;;;;;;9.19;93.61;101153.16;7399699;19;20481;-69
2023/10/09 04:37:36;;;;;;;8.25;4.28;;;;;;;9.20;93.77;101157.53;7397646;19;20014;-68
2023/10/09 04:40:11;;;;;;;7.45;4.80;;;;;;;9.19;93.80;101166.25;7398749;19;20017;-69
2023/10/09 04:42:37;;;;;;;5.43;3.85;;;;;;;9.21;93.95;101163.59;7399732;19;20007;-69
2023/10/09 04:45:59;;;;;;;7.45;4.18;;;;;;;9.20;94.02;101181.09;7395975;19;20029;-69
2023/10/09 04:48:09;;;;;;;7.43;3.53;;;;;;;9.20;94.12;101190.66;7397261;19;20010;-69
2023/10/09 04:51:20;;;;;;;5.10;3.92;;;;;;;9.17;94.01;101198.56;7396586;19;20387;-69
2023/10/09 04:53:54;;;;;;;7.18;3.53;;;;;;;9.15;94.26;101205.53;7398409;19;20369;-68
2023/10/09 04:56:24;;;;;;;7.28;4.13;;;;;;;9.14;94.33;101199.47;7397057;19;20537;-68
2023/10/09 04:59:03;;;;;;;7.47;3.85;;;;;;;9.12;94.53;101194.25;7396227;19;20014;-69
2023/10/09 05:01:45;;;;;;;6.70;4.13;;;;;;;9.12;94.72;101190.75;7397708;19;20010;-70
2023/10/09 05:04:29;;;;;;;6.50;3.65;;;;;;;9.13;94.79;101195.09;7397239;19;20315;-67
2023/10/09 05:06:55;;;;;;;;;;;;;;;9.13;94.90;101198.56;7396643;19;20022;-67
2023/10/09 05:09:25;;;;;;;4.88;3.40;;;;;;;9.11;94.92;101179.41;7397950;19;20277;-68
2023/10/09 05:11:54;;;;;;;5.22;3.92;;;;;;;9.12;95.02;101193.34;7396899;19;20078;-69
2023/10/09 05:14:45;;;;;;;5.57;3.80;;;;;;;9.10;94.98;101188.13;7397840;19;20111;-67
2023/10/09 05:17:17;;;;;;;6.25;4.07;;;;;;;9.08;95.29;101189.03;7397140;19;20359;-69
2023/10/09 05:19:54;;;;;;;8.88;3.97;;;;;;;9.07;95.32;101182.94;7398496;19;20052;-68
2023/10/09 05:22:36;;;;;;;6.00;4.00;;;;;;;9.04;95.64;101182.94;7397241;19;20015;-68
2023/10/09 05:25:15;;;;;;;7.07;4.70;;;;;;;9.05;95.87;101189.94;7395226;19;20033;-69
2023/10/09 05:27:50;;;;;;;8.93;4.97;;;;;;;9.03;96.07;101190.81;7397574;19;20010;-68
2023/10/09 05:30:33;;;;;;;54.83;30.67;;;;;;;9.01;96.21;101187.34;7395535;19;20006;-67
2023/10/09 05:36:05;;;;;;;8.75;5.07;;;;;;;8.96;96.55;101185.63;7395028;19;20430;-67
2023/10/09 05:38:31;;;;;;;11.23;6.25;;;;;;;8.95;96.86;101199.59;7394092;19;20010;-70
2023/10/09 05:41:31;;;;;;;6.85;5.80;;;;;;;8.95;96.77;101190.88;7395094;19;20015;-68
2023/10/09 05:46:48;;;;;;;7.15;5.70;;;;;;;8.94;97.08;101179.53;7393409;19;20025;-69
2023/10/09 05:49:19;;;;;;;9.15;6.20;;;;;;;8.94;97.14;101170.81;7395472;19;20026;-69
2023/10/09 05:51:53;;;;;;;7.57;5.70;;;;;;;8.95;96.99;101173.44;7392949;19;20390;-70
2023/10/09 06:08:07;;;;;;;9.20;5.90;;;;;;;9.02;97.52;101186.47;7395455;19;20033;-68
2023/10/09 06:10:41;;;;;;;8.55;5.57;;;;;;;9.02;97.58;101183.84;7396745;19;20014;-67
2023/10/09 06:13:37;;;;;;;;;;;;;;;9.03;97.79;101188.22;7397251;19;20014;-68
2023/10/09 06:19:07;;;;;;;8.77;6.35;;;;;;;9.02;97.57;101196.94;7394366;19;20026;-68
2023/10/09 06:24:33;;;;;;;7.85;6.10;;;;;;;9.07;98.04;101200.38;7392676;19;20020;-67
2023/10/09 06:27:24;;;;;;;9.77;5.88;;;;;;;9.08;97.92;101199.50;7396149;19;20011;-68
2023/10/09 06:30:14;;;;;;;9.05;6.18;;;;;;;9.09;98.10;101209.09;7394839;19;20011;-67
2023/10/09 06:32:50;;;;;;;9.73;6.78;;;;;;;9.07;98.17;101205.63;7395986;19;20042;-68
2023/10/09 06:35:21;;;;;;;11.48;7.28;;;;;;;9.08;98.07;101199.50;7396246;19;20081;-68
2023/10/09 06:43:26;;;;;;;9.65;6.40;;;;;;;9.06;98.52;101196.91;7395533;19;20021;-68
2023/10/09 06:45:57;;;;;;;9.40;6.65;;;;;;;9.08;98.62;101204.75;7394693;19;20013;-68
2023/10/09 06:51:12;;;;;;;8.70;6.85;;;;;;;9.07;98.84;101195.16;7392901;19;20015;-67
2023/10/09 06:56:56;;;;;;;7.75;5.22;;;;;;;9.08;99.07;101183.81;7394010;19;20025;-68
2023/10/09 06:59:16;;;;;;;7.93;5.47;;;;;;;9.06;99.03;101190.78;7394746;19;20006;-68
2023/10/09 07:01:46;;;;;;;8.30;6.13;;;;;;;9.07;99.03;101189.91;7392922;19;20010;-68
2023/10/09 07:04:19;;;;;;;9.00;6.85;;;;;;;9.09;99.05;101188.16;7395621;19;20087;-68
2023/10/09 07:06:50;;;;;;;9.32;6.05;;;;;;;9.10;99.09;101196.00;7396562;19;20007;-68
2023/10/09 07:09:19;;;;;;;6.10;5.50;;;;;;;9.11;99.22;101183.75;7394710;19;20074;-68
2023/10/09 07:12:09;;;;;;;6.82;5.68;;;;;;;9.12;99.26;101190.75;7395080;19;20018;-67
2023/10/09 07:17:21;;;;;;;8.20;5.40;;;;;;;9.16;99.37;101202.06;7396416;19;20516;-69
2023/10/09 07:22:52;;;;;;;7.95;5.78;;;;;;;9.21;99.49;101179.31;7392066;19;20491;-69
2023/10/09 07:25:40;;;;;;;9.57;6.85;;;;;;;9.25;99.33;101195.00;7394027;19;20016;-68
2023/10/09 07:28:29;;;;;;;9.90;6.22;;;;;;;9.25;99.33;101192.38;7393064;19;20030;-68
2023/10/09 07:31:00;;;;;;;18.27;10.48;;;;;;;9.30;99.41;101192.31;7392868;19;20018;-68
2023/10/09 07:33:50;;;;;;;14.38;9.35;;;;;;;9.33;99.45;101200.16;7391956;19;20006;-67
2023/10/09 07:36:29;;;;;;;9.77;6.95;;;;;;;9.36;99.45;101199.25;7393697;19;20074;-69
2023/10/09 07:38:59;;;;;;;8.90;7.35;;;;;;;9.39;99.64;101191.34;7392359;19;20018;-69
2023/10/09 07:41:44;;;;;;;10.43;7.40;;;;;;;9.40;99.42;101180.00;7393742;19;20483;-68
2023/10/09 07:44:34;;;;;;;7.80;6.78;;;;;;;9.43;99.55;101185.22;7393426;19;20010;-68
2023/10/09 07:49:49;;;;;;;8.07;7.22;;;;;;;9.52;99.64;101179.88;7392772;19;20014;-68
2023/10/09 07:52:21;;;;;;;8.23;6.85;;;;;;;9.55;99.48;101174.59;7392288;19;20042;-69
2023/10/09 07:55:01;;;;;;;8.10;7.07;;;;;;;9.57;99.22;101191.19;7394269;19;20037;-68
2023/10/09 07:57:38;;;;;;;9.40;6.80;;;;;;;9.59;99.28;101186.81;7393232;19;20010;-68
2023/10/09 08:00:36;;;;;;;7.93;6.28;;;;;;;9.64;99.25;101184.13;7394135;19;20010;-68
2023/10/09 08:03:23;;;;;;;6.82;5.68;;;;;;;9.67;99.08;101184.09;7392411;19;20481;-68
2023/10/09 08:06:06;;;;;;;8.63;6.07;;;;;;;9.72;99.02;101194.53;7391245;19;20021;-67
2023/10/09 08:09:16;;;;;;;7.07;5.78;;;;;;;9.75;98.87;101204.97;7392418;19;20077;-68
2023/10/09 08:11:59;;;;;;;;;;;;;;;9.78;98.82;101223.28;7393391;19;20010;-68
2023/10/09 08:14:45;;;;;;;10.63;7.28;;;;;;;9.82;98.82;101198.78;7393439;19;20350;-69
2023/10/09 08:17:17;;;;;;;6.07;5.47;;;;;;;9.86;98.55;101215.34;7400165;19;20047;-69
2023/10/09 08:19:57;;;;;;;7.35;5.35;;;;;;;9.89;98.49;101231.03;7400626;19;20033;-68
2023/10/09 08:22:43;;;;;;;5.32;4.60;;;;;;;9.90;98.33;101228.38;7400434;19;20018;-68
2023/10/09 08:25:26;;;;;;;7.15;5.07;;;;;;;9.90;98.09;101228.38;7399085;19;20007;-70
2023/10/09 08:27:57;;;;;;;5.63;4.35;;;;;;;9.92;98.13;101236.22;7397326;19;20353;-67
2023/10/09 08:30:41;;;;;;;6.28;4.38;;;;;;;9.95;98.18;101236.22;7399890;19;20006;-67
2023/10/09 08:35:51;;;;;;;6.22;4.65;;;;;;;9.99;97.98;101216.06;7399583;19;20014;-66
2023/10/09 08:38:23;;;;;;;7.80;4.72;;;;;;;10.00;97.73;101212.56;7397280;19;20014;-67
2023/10/09 08:40:58;;;;;;;5.57;4.63;;;;;;;10.01;97.77;101207.31;7399840;19;20102;-66
2023/10/09 08:43:30;;;;;;;8.45;4.53;;;;;;;10.04;97.73;101203.78;7399047;19;20481;-67
2023/10/09 08:46:03;;;;;;;7.18;4.18;;;;;;;10.06;97.50;101215.09;7397952;19;20014;-67
2023/10/09 08:48:33;;;;;;;7.80;5.00;;;;;;;10.06;97.43;101197.63;7396702;19;20014;-67
2023/10/09 08:51:34;;;;;;;9.23;5.97;;;;;;;10.08;97.33;101184.50;7396370;19;20485;-67
2023/10/09 08:54:11;;;;;;;7.47;4.85;;;;;;;10.09;97.36;101197.56;7396905;19;20015;-66
2023/10/09 08:56:49;;;;;;;8.48;5.47;;;;;;;10.11;97.36;101181.84;7399651;19;20011;-67
2023/10/09 08:59:18;;;;;;;9.82;5.20;;;;;;;10.13;97.42;101181.81;7395943;19;20023;-67
2023/10/09 09:01:52;;;;;;;6.07;4.55;;;;;;;10.17;97.40;101188.75;7399050;19;20017;-66
2023/10/09 09:04:41;;;;;;;133.20;81.35;;;;;;;10.19;97.33;101193.09;7397032;19;20015;-66
2023/10/09 09:07:29;;;;;;;23.75;15.23;;;;;;;10.20;97.36;101197.44;7398551;19;20014;-67
2023/10/09 09:10:04;;;;;;;7.45;5.63;;;;;;;10.22;97.48;101194.81;7399126;19;20017;-67
2023/10/09 09:12:37;;;;;;;6.82;4.68;;;;;;;10.23;97.39;101186.91;7398908;19;20066;-67
2023/10/09 09:15:10;;;;;;;6.15;4.50;;;;;;;10.24;97.36;101191.28;7399402;19;20014;-67
2023/10/09 09:17:42;;;;;;;5.72;4.55;;;;;;;10.26;97.46;101197.38;7398461;19;20006;-65
2023/10/09 09:20:30;;;;;;;6.25;5.15;;;;;;;10.27;97.43;101206.09;7399675;19;20026;-66
2023/10/09 09:22:58;;;;;;;6.60;4.78;;;;;;;10.32;97.50;101203.44;7397049;19;20019;-67
2023/10/09 09:25:43;;;;;;;5.72;4.78;;;;;;;10.35;97.34;101211.25;7395878;19;20086;-68
2023/10/09 09:28:12;;;;;;;12.98;8.00;;;;;;;10.36;97.40;101203.41;7397465;19;20019;-68
2023/10/09 09:30:42;;;;;;;6.20;4.55;;;;;;;10.38;97.29;101195.50;7398767;19;20014;-67
2023/10/09 09:33:38;;;;;;;6.82;5.05;;;;;;;10.40;97.43;101191.09;7398113;19;20015;-69
2023/10/09 09:36:11;;;;;;;8.70;4.97;;;;;;;10.41;97.47;101188.47;7397253;19;20010;-69
2023/10/09 09:38:50;;;;;;;6.97;4.97;;;;;;;10.43;97.38;101186.66;7396361;19;20014;-69
2023/10/09 09:41:25;;;;;;;6.72;5.65;;;;;;;10.46;97.34;101180.50;7398238;19;20363;-68
2023/10/09 09:43:57;;;;;;;13.95;8.45;;;;;;;10.46;97.26;101191.00;7397722;19;20011;-69
2023/10/09 09:46:33;;;;;;;8.20;5.80;;;;;;;10.48;97.23;101201.50;7395742;19;20032;-67
2023/10/09 09:49:12;;;;;;;8.32;5.45;;;;;;;10.48;97.27;101198.88;7394596;19;20015;-67
2023/10/09 09:51:42;;;;;;;72.03;33.38;;;;;;;10.50;97.28;101203.22;7397034;19;20023;-68
2023/10/09 09:54:15;;;;;;;8.85;7.38;;;;;;;10.49;97.19;101203.22;7396792;19;20017;-69
2023/10/09 09:56:50;;;;;;;10.30;5.97;;;;;;;10.52;97.13;101205.81;7397420;19;20033;-68
2023/10/09 09:59:21;;;;;;;8.30;5.22;;;;;;;10.51;97.05;101196.19;7395549;19;20502;-68
2023/10/09 10:01:56;;;;;;;7.70;4.78;;;;;;;10.52;97.00;101185.69;7396983;19;20025;-68
2023/10/09 10:04:35;;;;;;;6.32;4.97;;;;;;;10.54;96.86;101194.41;7396800;19;20393;-69
2023/10/09 10:07:09;;;;;;;9.57;6.10;;;;;;;10.58;96.86;101201.34;7395122;19;20034;-68
2023/10/09 10:09:41;;;;;;;8.63;5.82;;;;;;;10.61;96.93;101196.94;7395130;19;20038;-69
2023/10/09 10:12:11;;;;;;;6.80;5.85;;;;;;;10.62;96.96;101202.16;7397046;19;20025;-68
2023/10/09 10:14:56;;;;;;;7.60;6.32;;;;;;;10.65;96.95;101191.59;7394544;19;20010;-70
2023/10/09 10:17:27;;;;;;;9.75;6.82;;;;;;;10.67;96.92;101181.09;7396430;19;20047;-68
2023/10/09 10:22:50;;;;;;;5.70;4.78;;;;;;;10.70;96.99;101191.53;7395880;19;20074;-69
2023/10/09 10:25:41;;;;;;;7.78;5.38;;;;;;;10.73;96.84;101188.91;7396267;19;20350;-68
2023/10/09 10:28:28;;;;;;;6.45;5.38;;;;;;;10.75;96.87;101197.59;7396157;19;20082;-67
2023/10/09 10:31:00;;;;;;;36.20;22.13;;;;;;;10.75;97.25;101194.97;7395482;19;20023;-68
2023/10/09 10:33:29;;;;;;;135.75;80.50;;;;;;;10.77;97.11;101190.56;7394151;19;20021;-67
2023/10/09 10:36:06;;;;;;;14.52;10.82;;;;;;;10.80;97.14;101202.78;7395461;19;20074;-68
2023/10/09 10:38:42;;;;;;;13.60;9.05;;;;;;;10.83;96.91;101197.47;7392738;19;20010;-68
2023/10/09 10:41:12;;;;;;;8.00;6.50;;;;;;;10.83;96.67;101189.59;7396056;19;20355;-68
2023/10/09 10:46:37;;;;;;;5.63;5.07;;;;;;;10.87;96.66;101192.16;7394314;19;20014;-68
2023/10/09 10:49:20;;;;;;;5.43;4.63;;;;;;;10.91;96.60;101192.97;7393834;19;20015;-68
2023/10/09 10:52:01;;;;;;;7.13;5.38;;;;;;;10.91;96.55;101178.09;7395647;19;20015;-68
2023/10/09 10:57:52;;;;;;;8.32;6.10;;;;;;;10.97;96.45;101186.75;7392990;19;20014;-68
2023/10/09 11:03:13;;;;;;;7.40;6.32;;;;;;;11.04;96.12;101184.00;7392181;19;20102;-68
2023/10/09 11:05:50;;;;;;;7.07;5.28;;;;;;;11.07;95.99;101190.97;7393644;19;20025;-68
2023/10/09 11:08:27;;;;;;;6.95;5.22;;;;;;;11.11;96.00;101192.66;7392853;19;20019;-67
2023/10/09 11:11:15;;;;;;;7.00;5.57;;;;;;;11.14;95.93;101191.75;7392607;19;20327;-69
2023/10/09 11:13:57;;;;;;;6.30;5.32;;;;;;;11.18;95.87;101180.28;7394560;19;20021;-67
2023/10/09 11:16:41;;;;;;;6.35;5.65;;;;;;;11.21;95.67;101178.47;7393666;19;20006;-69
2023/10/09 11:19:22;;;;;;;6.63;5.95;;;;;;;11.26;95.63;101181.03;7391400;19;20015;-68
2023/10/09 11:21:58;;;;;;;6.68;6.07;;;;;;;11.31;95.83;101183.56;7393466;19;20019;-67
2023/10/09 11:24:33;;;;;;;11.70;7.90;;;;;;;11.36;95.70;101184.34;7394038;19;20010;-68
2023/10/09 11:27:05;;;;;;;6.85;6.15;;;;;;;11.39;95.40;101182.53;7391226;19;20007;-68
2023/10/09 11:32:22;;;;;;;6.55;5.85;;;;;;;11.49;95.13;101177.13;7391237;19;20026;-67
2023/10/09 11:34:54;;;;;;;7.30;6.20;;;;;;;11.52;95.31;101177.03;7393623;19;20014;-67
2023/10/09 11:37:38;;;;;;;8.65;7.75;;;;;;;11.58;95.01;101169.06;7393246;19;20074;-68
2023/10/09 11:40:23;;;;;;;7.03;6.22;;;;;;;11.61;94.77;101173.38;7393661;19;20069;-67
2023/10/09 11:42:49;;;;;;;8.15;6.28;;;;;;;11.64;94.68;101170.69;7393428;19;20082;-68
2023/10/09 11:45:24;;;;;;;6.88;6.10;;;;;;;11.65;94.67;101178.56;7393291;19;20094;-67
2023/10/09 11:47:57;;;;;;;7.03;6.10;;;;;;;11.65;94.27;101175.03;7390687;19;20017;-68
2023/10/09 11:50:50;;;;;;;6.63;6.00;;;;;;;11.66;94.11;101177.63;7397227;19;20114;-66
2023/10/09 11:53:33;;;;;;;6.82;6.13;;;;;;;11.67;94.17;101179.38;7401633;19;20015;-67
2023/10/09 11:56:04;;;;;;;7.13;6.43;;;;;;;11.67;94.14;101163.59;7401028;19;20011;-67
2023/10/09 11:58:32;;;;;;;8.52;7.47;;;;;;;11.68;94.19;101161.88;7399383;19;20029;-67
2023/10/09 12:01:03;;;;;;;10.88;8.38;;;;;;;11.69;93.99;101163.56;7397892;19;20015;-67
2023/10/09 12:03:32;;;;;;;8.45;7.55;;;;;;;11.69;93.93;101168.81;7400301;19;20024;-67
2023/10/09 12:06:05;;;;;;;9.40;7.75;;;;;;;11.68;94.07;101154.81;7399603;19;20031;-67
2023/10/09 12:08:34;;;;;;;16.65;11.80;;;;;;;11.68;94.11;101152.19;7397923;19;20020;-67
2023/10/09 12:11:08;;;;;;;12.35;8.27;;;;;;;11.67;94.02;101158.34;7400281;19;20027;-68
2023/10/09 12:13:38;;;;;;;8.13;7.32;;;;;;;11.66;93.97;101151.34;7400683;19;20078;-67
2023/10/09 12:16:10;;;;;;;7.72;6.95;;;;;;;11.66;94.01;101143.47;7399778;19;20010;-67
2023/10/09 12:18:39;;;;;;;8.70;7.80;;;;;;;11.65;94.02;101128.63;7398109;19;20018;-68
2023/10/09 12:21:15;;;;;;;12.25;9.15;;;;;;;11.65;94.20;101133.88;7400291;19;20011;-68
2023/10/09 12:23:47;;;;;;;8.82;7.07;;;;;;;11.70;94.16;101136.38;7399814;19;20010;-68
2023/10/09 12:26:18;;;;;;;7.60;6.80;;;;;;;11.77;94.18;101126.66;7397411;19;20006;-67
2023/10/09 12:28:49;;;;;;;10.23;7.72;;;;;;;11.83;94.04;101123.88;7398229;19;20070;-67
2023/10/09 12:31:19;;;;;;;8.45;7.40;;;;;;;11.88;93.68;101122.88;7400575;19;20015;-67
2023/10/09 12:33:50;;;;;;;12.43;9.60;;;;;;;11.92;93.47;101114.91;7400197;19;20011;-67
2023/10/09 12:36:20;;;;;;;11.13;8.88;;;;;;;11.97;93.61;101113.13;7400692;19;20014;-66
2023/10/09 12:38:50;;;;;;;10.52;7.97;;;;;;;12.02;93.42;101117.34;7397753;19;20069;-68
2023/10/09 12:41:25;;;;;;;8.73;7.35;;;;;;;12.04;93.24;101109.44;7397412;19;20018;-67
2023/10/09 12:43:54;;;;;;;9.60;8.60;;;;;;;12.08;93.08;101120.75;7399757;19;20018;-67
2023/10/09 12:46:25;;;;;;;8.57;7.68;;;;;;;12.09;92.96;101114.59;7398118;19;20014;-67
2023/10/09 12:48:54;;;;;;;8.85;7.90;;;;;;;12.11;93.00;101105.78;7396679;19;20010;-68
2023/10/09 12:51:29;;;;;;;9.38;8.38;;;;;;;12.14;93.08;101110.09;7395950;19;20010;-67
2023/10/09 12:54:01;;;;;;;8.77;7.80;;;;;;;12.15;92.73;101107.44;7399292;19;20039;-68
2023/10/09 12:56:37;;;;;;;8.52;7.63;;;;;;;12.19;92.47;101113.47;7396695;19;20122;-67
2023/10/09 12:59:07;;;;;;;9.85;8.43;;;;;;;12.20;92.11;101125.75;7396984;19;20350;-67
2023/10/09 13:01:42;;;;;;;11.38;9.52;;;;;;;12.19;92.37;101119.59;7398921;19;20010;-68
2023/10/09 13:04:11;;;;;;;10.27;7.32;;;;;;;12.20;92.20;101121.34;7396837;19;20033;-68
2023/10/09 13:06:43;;;;;;;8.23;6.90;;;;;;;12.20;91.89;101129.22;7395898;19;20593;-67
2023/10/09 13:09:13;;;;;;;7.47;6.75;;;;;;;12.19;91.84;101134.53;7396880;19;20020;-68
2023/10/09 13:11:48;;;;;;;8.43;6.75;;;;;;;12.17;91.78;101124.03;7396237;19;20067;-67
2023/10/09 13:14:21;;;;;;;11.95;7.28;;;;;;;12.14;91.85;101120.63;7396071;19;20066;-67